Princeton, West Virginia
Current Conditions -  °F | °C
As of 7:52 PM on Tuesday 27 Jan 2015 (Local Time) from KBLF Reporting Station
Clear Clear  
Wind Chill:   Ceiling: Unl
Heat Index: 20°   Visibility: 10mi
Dew Point:   Wind: 12mph
Humidity: 60%   Direction: 310°NW
Pressure: 29.96"   Gusts: 21mph
Location:  37.37°N, 81.1°W
Report Text: KBLF 280052Z AUTO 31010G18KT 10SM CLR M07/M13 A2996 RMK AO2 SLP178 T10671133
Loading
Personal Weather Stations






























Interactive Weather Map New forecast layout! Learn more

10-Day Weather Forecast

Advertisements
Track Severe Weather on mobile